BLUO2: Blue River, Blue, OK

                                SHEF ID:       BLUO2     Blue River near Blue, OK
STATION TYPE:
Regulating: Stage = 21.00, Flow = 5001

PRECIP STAGE RIV-FLOW BAT-LOAD
in ft cfs volt
Ccp-Rev Ccp-Rev Ccp-Rev Ccp-Rev
(America/Chicago)
04/27 00:00 0.00 12.35 1540 12.97
04/27 01:00 0.00 12.22 1499 12.97
04/27 02:00 0.00 12.02 1436 12.97
04/27 03:00 0.00 11.80 1366 12.89
04/27 04:00 0.00 11.57 1294 12.89
04/27 05:00 0.00 11.29 1208 12.89
04/27 06:00 0.00 11.01 1125 12.89
04/27 07:00 0.00 10.74 1048 12.89
04/27 08:00 0.00 10.47 972 12.89
04/27 09:00 0.00 10.23 907 13.21
04/27 10:00 0.00 10.03 855 13.44
04/27 11:00 0.00 9.84 802 13.68
04/27 12:00 0.00 9.70 764 14.00
04/27 13:00 0.00 9.57 729 14.16
04/27 14:00 0.00 9.49 707 13.76
04/27 15:00 0.00 9.39 681 13.37
04/27 16:00 0.00 9.33 666 13.37
04/27 17:00 0.00 9.24 643 13.76
04/27 18:00 0.00 9.17 625 13.92
04/27 19:00 0.00 9.05 595 13.68
04/27 20:00 0.00 8.97 574 13.29
04/27 21:00 0.00 8.88 552 12.97
04/27 22:00 0.00 8.78 528 12.97
04/27 23:00 0.00 8.67 502 12.97
Data processed at Tue 28Apr2026 04:47 GMT

NOTICE: If you are parsing this page

Please convert to using our Data API. Starting early 2026 we will be migrating to: https://water.usace.army.mil with modern pages rendered in JavaScript. When this migration completes you will no longer be able to scrape this page! CWMSDataAPI (CDA)

Timeseries IDs (TSIDs)

TSIDs used from left to right in the data table
BLUE.Precip-Inc.Total.1Hour.1Hour.Ccp-Rev
BLUE.Stage.Inst.1Hour.0.Ccp-Rev
BLUE.Flow.Inst.1Hour.0.Ccp-Rev
BLUE.Volt-Battery Load.Inst.1Hour.0.Ccp-Rev

                            

All information presented herein is the property of the government of the United States of America and may be revised or deleted at any time without prior notice. Dissemination of this information without the expressed written consent of the Public Affairs Office, Tulsa District U.S. Army Corps of Engineers is strictly prohibited. These data are gathered electronically and, as presented, have NOT undergone any form of quality control. These data are NOT guaranteed to be valid or correct.